createdAt,value
2023-01-07T00:01:26.805Z,21.92
2023-01-07T00:03:56.120Z,24.70
2023-01-07T00:06:25.840Z,24.08
2023-01-07T00:08:54.023Z,18.80
2023-01-07T00:11:26.127Z,30.42
2023-01-07T00:13:54.367Z,23.98
2023-01-07T00:16:24.122Z,17.67
2023-01-07T00:18:52.114Z,24.60
2023-01-07T00:21:21.612Z,23.10
2023-01-07T00:23:48.726Z,24.27
2023-01-07T00:26:20.536Z,23.70
2023-01-07T00:28:50.599Z,24.70
2023-01-07T00:31:20.826Z,26.83
2023-01-07T00:33:54.070Z,23.77
2023-01-07T00:36:30.136Z,22.80
2023-01-07T00:39:02.403Z,23.38
2023-01-07T00:41:29.899Z,33.40
2023-01-07T00:43:56.879Z,24.45
2023-01-07T00:46:24.252Z,22.73
2023-01-07T00:48:51.471Z,29.30
2023-01-07T00:51:19.185Z,27.27
2023-01-07T00:53:46.576Z,40.25
2023-01-07T00:56:20.546Z,38.25
2023-01-07T00:58:48.240Z,33.20
2023-01-07T01:01:16.027Z,31.17
2023-01-07T01:03:43.128Z,28.63
2023-01-07T01:06:16.038Z,40.08
2023-01-07T01:08:44.772Z,36.22
2023-01-07T01:11:13.488Z,45.85
2023-01-07T01:13:41.361Z,33.83
2023-01-07T01:16:17.182Z,34.40
2023-01-07T01:18:44.943Z,34.72
2023-01-07T01:21:13.842Z,33.30
2023-01-07T01:23:41.099Z,43.35
2023-01-07T01:26:11.733Z,36.45
2023-01-07T01:28:39.418Z,30.65
2023-01-07T01:31:08.638Z,32.17
2023-01-07T01:33:55.558Z,32.78
2023-01-07T01:36:24.506Z,35.60
2023-01-07T01:38:53.399Z,41.72
2023-01-07T01:41:21.592Z,41.50
2023-01-07T01:43:51.401Z,28.95
2023-01-07T01:46:26.661Z,26.88
2023-01-07T01:49:33.412Z,29.60
2023-01-07T01:52:13.619Z,30.90
2023-01-07T01:54:42.463Z,29.08
2023-01-07T01:57:10.209Z,27.85
2023-01-07T01:59:42.507Z,28.75
2023-01-07T02:02:13.817Z,34.35
2023-01-07T02:04:41.520Z,34.30
2023-01-07T02:07:21.001Z,27.77
2023-01-07T02:10:00.382Z,27.60
2023-01-07T02:12:36.918Z,30.92
2023-01-07T02:15:14.486Z,36.95
2023-01-07T02:18:14.341Z,28.75
2023-01-07T02:20:53.257Z,24.10
2023-01-07T02:23:30.777Z,37.20
2023-01-07T02:26:19.462Z,24.90
2023-01-07T02:29:23.717Z,33.80
2023-01-07T02:31:50.732Z,34.00
2023-01-07T02:34:23.138Z,31.63
2023-01-07T02:37:02.488Z,28.67
2023-01-07T02:40:01.698Z,33.55
2023-01-07T02:42:59.978Z,25.65
2023-01-07T02:45:31.207Z,28.52
2023-01-07T02:48:14.317Z,28.40
2023-01-07T02:53:10.679Z,27.35
2023-01-07T02:56:08.437Z,35.22
2023-01-07T02:58:58.040Z,27.65
2023-01-07T03:01:51.540Z,29.60
2023-01-07T03:04:31.891Z,24.67
2023-01-07T03:07:24.378Z,28.60
2023-01-07T03:10:08.176Z,31.10
2023-01-07T03:12:57.597Z,31.90
2023-01-07T03:15:32.339Z,26.52
2023-01-07T03:18:06.519Z,31.90
2023-01-07T03:20:36.035Z,25.17
2023-01-07T03:23:06.841Z,30.15
2023-01-07T03:25:36.366Z,26.35
2023-01-07T03:28:04.019Z,25.55
2023-01-07T03:30:31.502Z,26.60
2023-01-07T03:33:01.903Z,33.03
2023-01-07T03:35:31.267Z,24.23
2023-01-07T03:38:01.204Z,21.73
2023-01-07T03:40:28.779Z,19.65
2023-01-07T03:42:55.933Z,27.08
2023-01-07T03:45:25.499Z,30.50
2023-01-07T03:47:56.458Z,31.73
2023-01-07T03:50:26.740Z,26.10
2023-01-07T03:52:54.124Z,31.33
2023-01-07T03:55:23.398Z,32.40
2023-01-07T03:57:53.429Z,28.20
2023-01-07T04:00:20.488Z,22.40
2023-01-07T04:02:55.304Z,32.92
2023-01-07T04:05:27.252Z,28.20
2023-01-07T04:07:54.515Z,30.45
2023-01-07T04:10:23.721Z,36.60
2023-01-07T04:12:51.884Z,34.78
2023-01-07T04:15:19.581Z,34.17
2023-01-07T04:17:46.543Z,33.80
2023-01-07T04:20:13.570Z,32.03
2023-01-07T04:22:40.520Z,32.35
2023-01-07T04:25:08.699Z,37.88
2023-01-07T04:27:36.648Z,40.53
2023-01-07T04:30:04.665Z,27.02
2023-01-07T04:32:34.265Z,34.88
2023-01-07T04:35:01.657Z,42.90
2023-01-07T04:37:29.763Z,26.27
2023-01-07T04:39:56.709Z,30.48
2023-01-07T04:42:24.103Z,28.90
2023-01-07T04:44:51.596Z,27.15
2023-01-07T04:47:18.579Z,34.67
2023-01-07T04:49:45.579Z,32.53
2023-01-07T04:52:12.761Z,30.35
2023-01-07T04:54:39.825Z,34.85
2023-01-07T04:57:07.156Z,27.00
2023-01-07T04:59:34.702Z,28.55
2023-01-07T05:02:02.974Z,32.55
2023-01-07T05:04:30.119Z,39.88
2023-01-07T05:06:58.054Z,45.10
2023-01-07T05:09:27.246Z,32.05
2023-01-07T05:11:54.160Z,28.95
2023-01-07T05:14:21.197Z,35.30
2023-01-07T05:16:51.865Z,43.80
2023-01-07T05:19:19.408Z,37.47
2023-01-07T05:21:48.639Z,44.28
2023-01-07T05:24:16.590Z,36.60
2023-01-07T05:26:44.784Z,43.10
2023-01-07T05:29:12.386Z,36.25
2023-01-07T05:31:42.200Z,33.88
2023-01-07T05:34:09.440Z,40.25
2023-01-07T05:36:36.560Z,26.52
2023-01-07T05:39:04.962Z,42.97
2023-01-07T05:41:32.964Z,44.78
2023-01-07T05:43:59.921Z,44.47
2023-01-07T05:46:26.968Z,44.10
2023-01-07T05:48:54.451Z,32.47
2023-01-07T05:51:21.612Z,32.28
2023-01-07T05:53:48.525Z,30.85
2023-01-07T05:56:15.479Z,35.58
2023-01-07T05:58:42.401Z,43.72
2023-01-07T06:01:09.423Z,55.08
2023-01-07T06:03:36.416Z,65.50
2023-01-07T06:06:09.368Z,41.45
2023-01-07T06:08:37.369Z,38.50
2023-01-07T06:11:05.410Z,35.40
2023-01-07T06:13:33.338Z,39.85
2023-01-07T06:16:04.912Z,36.95
2023-01-07T06:18:32.039Z,46.17
2023-01-07T06:20:59.000Z,37.92
2023-01-07T06:23:25.878Z,37.25
2023-01-07T06:25:52.920Z,35.72
2023-01-07T06:28:19.840Z,36.33
2023-01-07T06:30:47.778Z,34.20
2023-01-07T06:33:15.481Z,42.88
2023-01-07T06:35:42.622Z,48.40
2023-01-07T06:38:09.578Z,49.40
2023-01-07T06:40:36.682Z,43.65
2023-01-07T06:43:03.603Z,43.17
2023-01-07T06:45:30.553Z,41.05
2023-01-07T06:47:58.527Z,46.42
2023-01-07T06:50:25.900Z,56.90
2023-01-07T06:52:52.876Z,56.65
2023-01-07T06:55:19.864Z,75.22
2023-01-07T06:57:46.893Z,59.97
2023-01-07T07:00:14.476Z,70.35
2023-01-07T07:02:41.412Z,60.78
2023-01-07T07:05:08.694Z,63.58
2023-01-07T07:07:35.964Z,49.25
2023-01-07T07:10:07.335Z,60.15
2023-01-07T07:12:38.368Z,54.60
2023-01-07T07:15:07.800Z,50.80
2023-01-07T07:17:35.078Z,57.78
2023-01-07T07:20:02.122Z,63.25
2023-01-07T07:22:29.000Z,54.13
2023-01-07T07:24:55.967Z,66.03
2023-01-07T07:27:23.115Z,55.28
2023-01-07T07:29:50.351Z,46.30
2023-01-07T07:32:17.675Z,39.30
2023-01-07T07:34:44.800Z,40.45
2023-01-07T07:37:12.642Z,38.17
2023-01-07T07:39:39.792Z,34.15
2023-01-07T07:42:06.855Z,33.45
2023-01-07T07:44:33.820Z,46.40
2023-01-07T07:47:00.716Z,50.50
2023-01-07T07:49:27.671Z,51.83
2023-01-07T07:51:54.876Z,41.38
2023-01-07T07:54:23.880Z,33.35
2023-01-07T07:56:51.001Z,42.97
2023-01-07T07:59:18.050Z,39.70
2023-01-07T08:01:45.183Z,41.13
2023-01-07T08:04:12.396Z,50.03
2023-01-07T08:06:39.557Z,71.68
2023-01-07T08:09:06.677Z,68.45
2023-01-07T08:11:33.874Z,146.50
2023-01-07T08:14:01.021Z,184.10
2023-01-07T08:16:28.241Z,201.15
2023-01-07T08:18:55.209Z,106.78
2023-01-07T08:21:22.235Z,83.22
2023-01-07T08:23:49.154Z,79.88
2023-01-07T08:26:17.771Z,77.07
2023-01-07T08:28:46.564Z,79.95
2023-01-07T08:31:13.823Z,84.97
2023-01-07T08:33:40.902Z,61.05
2023-01-07T08:36:22.212Z,64.70
2023-01-07T08:38:52.472Z,34.58
2023-01-07T08:41:21.041Z,63.17
2023-01-07T08:43:48.001Z,62.05
2023-01-07T08:46:15.051Z,56.55
2023-01-07T08:48:42.381Z,66.35
2023-01-07T08:51:09.337Z,68.38
2023-01-07T08:53:36.455Z,51.45
2023-01-07T08:56:03.603Z,52.20
2023-01-07T08:58:30.876Z,58.10
2023-01-07T09:01:03.324Z,62.53
2023-01-07T09:03:30.753Z,55.83
2023-01-07T09:05:57.839Z,44.60
2023-01-07T09:08:25.182Z,55.30
2023-01-07T09:10:52.204Z,50.00
2023-01-07T09:13:19.189Z,45.85
2023-01-07T09:15:46.258Z,48.75
2023-01-07T09:18:13.155Z,39.00
2023-01-07T09:20:40.274Z,63.10
2023-01-07T09:23:07.238Z,163.18
2023-01-07T09:25:34.163Z,182.80
2023-01-07T09:28:01.244Z,178.52
2023-01-07T09:30:28.195Z,92.15
2023-01-07T09:32:55.255Z,66.82
2023-01-07T09:35:22.416Z,27.83
2023-01-07T09:37:49.499Z,44.90
2023-01-07T09:40:37.277Z,49.00
2023-01-07T09:43:11.258Z,44.10
2023-01-07T09:45:48.496Z,47.95
2023-01-07T09:48:33.162Z,48.30
2023-01-07T09:51:18.883Z,54.95
2023-01-07T09:53:57.689Z,57.83
2023-01-07T09:56:27.726Z,58.95
2023-01-07T09:58:56.842Z,48.17
2023-01-07T10:01:53.634Z,51.53
2023-01-07T10:04:34.448Z,44.42
2023-01-07T10:07:14.062Z,47.30
2023-01-07T10:09:47.839Z,42.00
2023-01-07T10:12:51.864Z,44.13
2023-01-07T10:15:49.623Z,43.40
2023-01-07T10:18:25.745Z,37.40
2023-01-07T10:20:59.859Z,35.65
2023-01-07T10:23:33.048Z,33.92
2023-01-07T10:26:01.595Z,27.70
2023-01-07T10:28:30.403Z,25.40
2023-01-07T10:30:59.445Z,26.48
2023-01-07T10:33:31.171Z,25.25
2023-01-07T10:36:14.960Z,17.83
2023-01-07T10:38:43.496Z,22.02
2023-01-07T10:41:17.926Z,26.13
2023-01-07T10:44:03.528Z,23.48
2023-01-07T10:46:52.296Z,24.95
2023-01-07T10:49:35.847Z,24.50
2023-01-07T10:52:20.234Z,34.05
2023-01-07T10:54:53.223Z,30.75
2023-01-07T10:57:22.305Z,32.90
2023-01-07T10:59:54.930Z,33.30
2023-01-07T11:02:23.549Z,35.95
2023-01-07T11:04:50.637Z,35.67
2023-01-07T11:07:40.501Z,36.53
2023-01-07T11:10:11.960Z,37.40
2023-01-07T11:12:49.853Z,37.45
2023-01-07T11:15:27.687Z,42.97
2023-01-07T11:18:04.367Z,42.60
2023-01-07T11:20:55.153Z,46.28
2023-01-07T11:23:25.271Z,41.15
2023-01-07T11:25:52.978Z,39.70
2023-01-07T11:28:23.209Z,34.30
2023-01-07T11:30:58.896Z,35.80
2023-01-07T11:34:01.699Z,39.50
2023-01-07T11:36:17.853Z,45.22
2023-01-07T11:38:45.698Z,54.28
2023-01-07T11:41:26.518Z,56.80
2023-01-07T11:43:54.424Z,53.53
2023-01-07T11:46:24.017Z,57.20
2023-01-07T11:48:56.415Z,44.58
2023-01-07T11:51:24.318Z,37.72
2023-01-07T11:53:59.629Z,35.55
2023-01-07T11:56:31.656Z,35.00
2023-01-07T11:59:14.400Z,37.85
2023-01-07T12:01:56.043Z,43.70
2023-01-07T12:04:27.349Z,54.72
2023-01-07T12:06:57.080Z,52.58
2023-01-07T12:09:38.327Z,47.67
2023-01-07T12:12:28.058Z,51.88
2023-01-07T12:14:55.485Z,47.65
2023-01-07T12:17:24.776Z,47.47
2023-01-07T12:20:21.406Z,46.40
2023-01-07T12:23:08.171Z,52.95
2023-01-07T12:25:42.245Z,55.42
2023-01-07T12:28:13.235Z,57.40
2023-01-07T12:31:02.043Z,52.07
2023-01-07T12:33:47.128Z,53.67
2023-01-07T12:36:23.000Z,55.08
2023-01-07T12:38:53.214Z,55.88
2023-01-07T12:41:24.345Z,58.83
2023-01-07T12:44:10.539Z,57.95
2023-01-07T12:47:30.478Z,58.03
2023-01-07T12:50:01.394Z,67.60
2023-01-07T12:52:40.065Z,57.20
2023-01-07T12:55:30.135Z,35.38
2023-01-07T12:58:03.745Z,35.60
2023-01-07T13:00:35.193Z,36.28
2023-01-07T13:03:45.699Z,31.55
2023-01-07T13:06:27.988Z,33.92
2023-01-07T13:08:58.997Z,31.80
2023-01-07T13:11:55.498Z,40.20
2023-01-07T13:14:26.356Z,32.85
2023-01-07T13:16:59.694Z,35.43
2023-01-07T13:19:26.915Z,37.67
2023-01-07T13:21:54.399Z,40.65
2023-01-07T13:24:56.224Z,70.95
2023-01-07T13:27:42.194Z,122.05
2023-01-07T13:30:18.773Z,158.50
2023-01-07T13:32:51.811Z,105.95
2023-01-07T13:35:36.110Z,79.13
2023-01-07T13:38:24.507Z,85.20
2023-01-07T13:41:04.336Z,75.15
2023-01-07T13:43:52.878Z,64.70
2023-01-07T13:46:22.530Z,44.95
2023-01-07T13:48:50.971Z,38.72
2023-01-07T13:51:27.954Z,32.17
2023-01-07T13:53:55.334Z,25.33
2023-01-07T13:56:23.365Z,25.60
2023-01-07T13:58:55.663Z,27.35
2023-01-07T14:01:24.010Z,27.77
2023-01-07T14:03:55.205Z,25.45
2023-01-07T14:06:22.417Z,23.48
2023-01-07T14:08:54.676Z,25.38
2023-01-07T14:14:42.664Z,43.90
2023-01-07T14:17:22.518Z,43.70
2023-01-07T14:20:26.982Z,34.67
2023-01-07T14:22:59.939Z,30.65
2023-01-07T14:25:42.121Z,31.20
2023-01-07T14:28:46.661Z,30.30
2023-01-07T14:31:22.494Z,28.75
2023-01-07T14:33:58.527Z,28.80
2023-01-07T14:36:26.037Z,34.72
2023-01-07T14:38:59.539Z,42.70
2023-01-07T14:41:26.775Z,58.75
2023-01-07T14:44:26.382Z,68.75
2023-01-07T14:46:54.149Z,81.90
2023-01-07T14:49:35.147Z,76.35
2023-01-07T14:52:28.431Z,66.40
2023-01-07T14:55:21.468Z,48.65
2023-01-07T14:58:07.427Z,62.25
2023-01-07T15:00:53.869Z,84.97
2023-01-07T15:03:45.096Z,141.77
2023-01-07T15:06:20.685Z,211.20
2023-01-07T15:09:12.548Z,216.90
2023-01-07T15:12:00.824Z,162.02
2023-01-07T15:15:04.904Z,110.43
2023-01-07T15:17:32.315Z,147.13
2023-01-07T15:19:59.982Z,234.55
2023-01-07T15:22:39.036Z,198.68
2023-01-07T15:25:22.697Z,232.68
2023-01-07T15:27:54.610Z,173.15
2023-01-07T15:30:30.746Z,119.43
2023-01-07T15:33:19.665Z,135.77
2023-01-07T15:35:46.707Z,120.18
2023-01-07T15:38:53.096Z,109.05
2023-01-07T15:41:36.937Z,105.88
2023-01-07T15:44:06.948Z,107.30
2023-01-07T15:46:34.051Z,91.63
2023-01-07T15:49:16.225Z,97.22
2023-01-07T15:51:48.097Z,94.03
2023-01-07T15:54:37.464Z,96.88
2023-01-07T15:57:11.524Z,85.75
2023-01-07T15:59:43.998Z,82.40
2023-01-07T16:02:37.284Z,79.57
2023-01-07T16:05:06.139Z,76.45
2023-01-07T16:07:35.649Z,75.70
2023-01-07T16:10:02.989Z,72.68
2023-01-07T16:12:39.140Z,69.63
2023-01-07T16:15:29.091Z,76.50
2023-01-07T16:18:05.014Z,70.57
2023-01-07T16:21:08.622Z,69.68
2023-01-07T16:23:39.407Z,68.03
2023-01-07T16:26:48.482Z,70.38
2023-01-07T16:29:27.872Z,76.07
2023-01-07T16:31:55.489Z,74.10
2023-01-07T16:34:25.406Z,79.22
2023-01-07T16:37:00.258Z,73.70
2023-01-07T16:39:32.025Z,71.13
2023-01-07T16:42:17.426Z,72.45
2023-01-07T16:44:44.551Z,72.57
2023-01-07T16:47:31.491Z,77.72
2023-01-07T16:50:20.782Z,98.80
2023-01-07T16:52:56.258Z,77.88
2023-01-07T16:56:01.120Z,73.80
2023-01-07T16:58:47.717Z,67.78
2023-01-07T17:04:47.977Z,67.75
2023-01-07T17:07:28.738Z,65.55
2023-01-07T17:09:58.384Z,70.15
2023-01-07T17:12:39.951Z,75.97
2023-01-07T17:15:32.032Z,72.95
2023-01-07T17:18:18.237Z,62.08
2023-01-07T17:20:51.096Z,61.08
2023-01-07T17:23:32.198Z,57.75
2023-01-07T17:26:02.726Z,56.07
2023-01-07T17:28:36.112Z,59.50
2023-01-07T17:31:04.430Z,63.05
2023-01-07T17:33:31.904Z,67.43
2023-01-07T17:35:59.366Z,62.70
2023-01-07T17:38:26.598Z,61.22
2023-01-07T17:40:56.006Z,56.05
2023-01-07T17:43:33.938Z,71.38
2023-01-07T17:46:04.057Z,66.68
2023-01-07T17:48:32.995Z,77.78
2023-01-07T17:51:03.587Z,107.57
2023-01-07T17:53:33.312Z,160.68
2023-01-07T17:56:04.641Z,144.13
2023-01-07T17:58:35.697Z,110.07
2023-01-07T18:01:09.650Z,116.63
2023-01-07T18:03:37.517Z,261.08
2023-01-07T18:06:35.131Z,276.45
2023-01-07T18:09:05.049Z,291.25
2023-01-07T18:11:55.232Z,277.02
2023-01-07T18:14:23.509Z,259.05
2023-01-07T18:16:51.974Z,255.38
2023-01-07T18:19:19.397Z,273.35
2023-01-07T18:21:46.706Z,227.18
2023-01-07T18:24:19.731Z,206.48
2023-01-07T18:26:46.975Z,167.82
2023-01-07T18:29:14.733Z,203.55
2023-01-07T18:31:45.045Z,170.27
2023-01-07T18:34:14.502Z,216.52
2023-01-07T18:36:42.899Z,218.75
2023-01-07T18:39:19.113Z,167.98
2023-01-07T18:41:48.977Z,292.70
2023-01-07T18:44:17.746Z,469.90
2023-01-07T18:46:46.813Z,249.00
2023-01-07T18:49:14.131Z,105.47
2023-01-07T18:51:44.147Z,214.00
2023-01-07T18:54:13.049Z,150.73
2023-01-07T18:56:40.121Z,396.48
2023-01-07T18:59:07.245Z,597.65
2023-01-07T19:01:34.623Z,492.65
2023-01-07T19:04:02.768Z,589.38
2023-01-07T19:06:29.736Z,1281.45
2023-01-07T19:08:56.796Z,734.63
2023-01-07T19:11:23.901Z,583.05
2023-01-07T19:13:51.151Z,745.00
2023-01-07T19:16:18.171Z,745.10
2023-01-07T19:18:45.063Z,727.50
2023-01-07T19:21:13.036Z,814.38
2023-01-07T19:23:40.072Z,716.42
2023-01-07T19:26:08.629Z,624.50
2023-01-07T19:28:35.780Z,452.02
2023-01-07T19:31:09.128Z,514.67
2023-01-07T19:33:36.933Z,551.65
2023-01-07T19:36:07.819Z,540.65
2023-01-07T19:38:41.437Z,615.90
2023-01-07T19:41:09.901Z,655.58
2023-01-07T19:43:38.826Z,814.88
2023-01-07T19:46:07.061Z,812.10
2023-01-07T19:48:34.688Z,660.55
2023-01-07T19:51:03.012Z,713.25
2023-01-07T19:53:30.911Z,793.58
2023-01-07T19:56:09.898Z,560.08
2023-01-07T19:58:37.788Z,504.13
2023-01-07T20:01:13.383Z,501.75
2023-01-07T20:03:40.655Z,711.47
2023-01-07T20:06:14.280Z,566.15
2023-01-07T20:08:41.969Z,814.08
2023-01-07T20:11:09.979Z,688.92
2023-01-07T20:13:38.991Z,792.53
2023-01-07T20:16:10.328Z,572.38
2023-01-07T20:18:45.647Z,743.80
2023-01-07T20:21:17.086Z,725.35
2023-01-07T20:23:45.808Z,732.60
2023-01-07T20:26:23.658Z,518.13
2023-01-07T20:28:53.154Z,478.75
2023-01-07T20:31:24.102Z,572.53
2023-01-07T20:33:52.105Z,599.63
2023-01-07T20:36:21.614Z,652.85
2023-01-07T20:38:48.583Z,624.50
2023-01-07T20:41:18.617Z,598.03
2023-01-07T20:43:54.955Z,572.08
2023-01-07T20:46:23.310Z,515.95
2023-01-07T20:48:50.410Z,757.55
2023-01-07T20:51:17.681Z,606.83
2023-01-07T20:53:46.868Z,632.53
2023-01-07T20:56:16.284Z,586.05
2023-01-07T20:58:43.256Z,765.20
2023-01-07T21:01:14.712Z,571.53
2023-01-07T21:03:42.233Z,624.78
2023-01-07T21:06:10.707Z,566.55
2023-01-07T21:08:38.700Z,767.70
2023-01-07T21:11:17.735Z,778.55
2023-01-07T21:13:45.059Z,733.92
2023-01-07T21:16:13.981Z,705.63
2023-01-07T21:18:41.494Z,738.65
2023-01-07T21:21:11.802Z,664.33
2023-01-07T21:23:39.331Z,695.03
2023-01-07T21:26:07.101Z,662.13
2023-01-07T21:28:34.844Z,673.17
2023-01-07T21:31:05.174Z,638.83
2023-01-07T21:33:33.262Z,693.65
2023-01-07T21:36:00.629Z,450.15
2023-01-07T21:38:27.638Z,539.60
2023-01-07T21:40:54.649Z,519.28
2023-01-07T21:43:21.572Z,530.38
2023-01-07T21:45:48.548Z,410.02
2023-01-07T21:48:15.449Z,470.52
2023-01-07T21:50:42.339Z,462.60
2023-01-07T21:53:09.229Z,511.10
2023-01-07T21:55:39.040Z,676.97
2023-01-07T21:58:06.089Z,706.90
2023-01-07T22:00:33.046Z,788.40
2023-01-07T22:02:59.884Z,615.25
2023-01-07T22:05:26.897Z,653.10
2023-01-07T22:07:53.885Z,653.83
2023-01-07T22:10:20.792Z,609.38
2023-01-07T22:12:47.681Z,571.88
2023-01-07T22:15:14.595Z,696.95
2023-01-07T22:17:41.548Z,601.08
2023-01-07T22:20:09.220Z,632.90
2023-01-07T22:22:36.089Z,714.13
2023-01-07T22:25:02.988Z,787.17
2023-01-07T22:27:30.137Z,682.13
2023-01-07T22:29:57.767Z,642.83
2023-01-07T22:32:24.699Z,732.58
2023-01-07T22:34:51.760Z,676.30
2023-01-07T22:37:20.741Z,461.73
2023-01-07T22:39:53.817Z,634.25
2023-01-07T22:42:24.511Z,688.10
2023-01-07T22:44:56.144Z,651.33
2023-01-07T22:47:27.306Z,671.92
2023-01-07T22:49:54.821Z,529.15
2023-01-07T22:52:22.214Z,767.97
2023-01-07T22:54:49.244Z,727.58
2023-01-07T22:57:16.321Z,794.63
2023-01-07T22:59:43.937Z,736.38
2023-01-07T23:02:11.678Z,741.83
2023-01-07T23:04:38.526Z,560.42
2023-01-07T23:07:05.476Z,721.13
2023-01-07T23:09:32.597Z,708.53
2023-01-07T23:12:00.924Z,736.35
2023-01-07T23:14:29.584Z,554.15
2023-01-07T23:16:56.635Z,703.47
2023-01-07T23:19:23.560Z,801.40
2023-01-07T23:21:52.600Z,616.75
2023-01-07T23:24:20.367Z,774.55
2023-01-07T23:26:49.591Z,658.92
2023-01-07T23:29:16.897Z,545.30
2023-01-07T23:31:44.157Z,665.15
2023-01-07T23:34:11.872Z,668.45
2023-01-07T23:36:39.372Z,739.67
2023-01-07T23:39:07.163Z,667.10
2023-01-07T23:41:34.101Z,797.15
2023-01-07T23:44:00.995Z,565.70
2023-01-07T23:46:28.029Z,573.33
2023-01-07T23:48:55.069Z,652.35
2023-01-07T23:51:22.351Z,849.47
2023-01-07T23:53:49.432Z,719.00
2023-01-07T23:56:20.880Z,755.45
2023-01-07T23:58:49.603Z,779.03
